LGZA

Zakynthos International Airport

Airport
ICAO code
LGZA
IATA Code
ZTH
Summary
ICAO Region
EUR
ICAO Territory
Location

Kalamaki, Zakynthos

Serving
Zakynthos
Elevation
15 ft
Coordinates
37° 45' 5" N , 20° 53' 4" E
KCC
Metar
LGZA 040750Z 13011KT 9999 SCT018 16/13 Q1013

Description

International airport serving the island of Zakynthos, Greece.

Climatology

Mediterranean climate (Köppen climate classification Csa) - Hot, dry summer and a mild wet winter.

Runways

Designator Length Width Surface Rops
16/34 2228 45 ASP Yes/Yes

Airport map

Aerial View

SKYbrary Partners:

Safety knowledge contributed by: